createdAt,value
2018-02-08T05:13:31.023Z,0.30
2018-02-08T05:14:31.059Z,2.20
2018-02-08T05:15:31.095Z,14.30
2018-02-08T05:16:31.133Z,20.50
2018-02-08T05:17:31.172Z,21.00
2018-02-08T05:18:31.212Z,21.20
2018-02-08T05:19:31.252Z,22.10
2018-02-08T05:20:31.295Z,20.30
2018-02-08T05:21:31.339Z,21.00
2018-02-08T05:22:31.382Z,20.40
2018-02-08T05:23:31.427Z,20.40
2018-02-08T05:24:31.472Z,20.80
2018-02-08T05:25:31.519Z,21.00
2018-02-08T05:26:31.567Z,20.10
2018-02-08T05:27:31.609Z,20.80
2018-02-08T05:28:31.656Z,21.80
2018-02-08T05:29:31.702Z,20.10
2018-02-08T05:31:04.963Z,19.60
2018-02-08T05:31:31.799Z,21.90
2018-02-08T05:32:31.846Z,20.10
2018-02-08T05:33:31.894Z,20.40
2018-02-08T05:34:31.942Z,21.00
2018-02-08T05:35:31.990Z,21.60
2018-02-08T05:36:32.039Z,19.10
2018-02-08T05:37:32.088Z,20.70
2018-02-08T05:38:32.137Z,19.50
2018-02-08T05:39:32.187Z,19.70
2018-02-08T05:40:32.236Z,21.70
2018-02-08T05:41:32.286Z,20.90
2018-02-08T05:42:32.335Z,21.30
2018-02-08T05:43:32.421Z,19.50
2018-02-08T05:44:32.434Z,19.80
2018-02-08T05:45:32.483Z,20.50
2018-02-08T05:46:32.533Z,19.30
2018-02-08T05:47:32.582Z,19.80
2018-02-08T05:48:32.632Z,21.00
2018-02-08T05:49:32.682Z,20.00
2018-02-08T05:50:32.734Z,20.30
2018-02-08T05:51:32.783Z,20.30
2018-02-08T05:52:32.833Z,20.80
2018-02-08T05:53:32.884Z,20.10
2018-02-08T05:54:32.933Z,19.80
2018-02-08T05:55:32.982Z,19.40
2018-02-08T05:56:33.032Z,20.80
2018-02-08T05:57:33.082Z,19.10
2018-02-08T05:58:33.134Z,19.90
2018-02-08T05:59:33.183Z,20.30
2018-02-08T06:00:33.234Z,19.30
2018-02-08T06:01:33.285Z,20.10
2018-02-08T06:02:33.336Z,18.90
2018-02-08T06:03:33.387Z,18.30
2018-02-08T06:04:33.435Z,19.20
2018-02-08T06:05:33.950Z,18.90
2018-02-08T06:06:33.559Z,21.00
2018-02-08T06:07:33.616Z,20.00
2018-02-08T06:08:33.698Z,20.40
2018-02-08T06:09:33.685Z,20.30
2018-02-08T06:10:33.737Z,20.30
2018-02-08T06:11:33.786Z,19.90
2018-02-08T06:12:33.871Z,20.60
2018-02-08T06:13:33.888Z,20.20
2018-02-08T06:14:33.938Z,20.40
2018-02-08T06:15:33.986Z,18.50
2018-02-08T06:16:34.038Z,19.50
2018-02-08T06:17:34.087Z,20.40
2018-02-08T06:18:34.138Z,20.00
2018-02-08T06:19:34.187Z,19.90
2018-02-08T06:21:07.455Z,19.80
2018-02-08T06:21:34.290Z,20.10
2018-02-08T06:22:34.339Z,20.30
2018-02-08T06:23:34.388Z,19.20
2018-02-08T06:24:34.439Z,19.70
2018-02-08T06:25:34.810Z,19.60
2018-02-08T06:26:34.541Z,20.70
2018-02-08T06:27:34.590Z,20.10
2018-02-08T06:28:34.640Z,21.00
2018-02-08T06:29:34.690Z,19.30
2018-02-08T06:30:34.750Z,19.30
2018-02-08T06:31:34.791Z,20.40
2018-02-08T06:32:34.841Z,18.90
2018-02-08T06:33:34.891Z,18.80
2018-02-08T06:34:34.946Z,20.30
2018-02-08T06:35:34.991Z,19.80
2018-02-08T06:36:35.041Z,18.60
2018-02-08T06:37:35.092Z,18.60
2018-02-08T06:38:35.141Z,20.10
2018-02-08T06:39:35.191Z,21.00
2018-02-08T06:41:35.292Z,19.50
2018-02-08T06:42:35.346Z,18.50
2018-02-08T06:43:35.391Z,19.10
2018-02-08T06:44:35.442Z,18.70
2018-02-08T06:45:35.492Z,18.70
2018-02-08T06:46:35.543Z,19.90
2018-02-08T06:47:35.592Z,20.00
2018-02-08T06:48:35.642Z,19.40
2018-02-08T06:49:35.783Z,19.40
2018-02-08T06:51:08.953Z,19.20
2018-02-08T06:51:35.793Z,20.30
2018-02-08T06:52:35.854Z,19.90
2018-02-08T06:53:35.892Z,19.80
2018-02-08T06:54:35.944Z,19.30
2018-02-08T06:55:35.993Z,20.20
2018-02-08T06:56:36.042Z,19.40
2018-02-08T06:57:36.092Z,19.50
2018-02-08T06:58:36.632Z,19.30
2018-02-08T06:59:36.192Z,19.90
2018-02-08T07:00:36.246Z,20.30
2018-02-08T07:01:36.294Z,19.40
2018-02-08T07:02:36.344Z,19.10
2018-02-08T07:03:36.405Z,19.00
2018-02-08T07:04:36.443Z,20.20
2018-02-08T07:05:36.493Z,19.20
2018-02-08T07:06:36.545Z,19.50
2018-02-08T07:07:36.594Z,19.70
2018-02-08T07:08:36.644Z,18.70
2018-02-08T07:09:36.701Z,19.60
2018-02-08T07:10:36.744Z,19.50
2018-02-08T07:11:36.793Z,19.50
2018-02-08T07:12:36.844Z,19.10
2018-02-08T07:13:36.895Z,20.10
2018-02-08T07:14:36.944Z,19.70
2018-02-08T07:15:36.995Z,19.30
2018-02-08T07:16:37.047Z,18.40
2018-02-08T07:17:37.097Z,19.30
2018-02-08T07:18:37.144Z,19.70
2018-02-08T07:19:37.194Z,19.80
2018-02-08T07:20:37.783Z,19.20
2018-02-08T07:21:37.295Z,19.30
2018-02-08T07:22:37.345Z,17.00
2018-02-08T07:23:37.393Z,18.00
2018-02-08T07:24:37.445Z,17.60
2018-02-08T07:25:37.494Z,19.30
2018-02-08T07:26:37.545Z,19.50
2018-02-08T07:27:37.595Z,18.80
2018-02-08T07:28:37.646Z,19.60
2018-02-08T07:29:37.696Z,20.60
2018-02-08T07:30:37.747Z,18.50
2018-02-08T07:31:37.794Z,19.80
2018-02-08T07:32:37.845Z,20.00
2018-02-08T07:33:37.896Z,19.20
2018-02-08T07:34:37.945Z,18.90
2018-02-08T07:35:38.033Z,19.80
2018-02-08T07:36:38.046Z,20.60
2018-02-08T07:37:38.096Z,20.00
2018-02-08T07:38:38.145Z,19.20
2018-02-08T07:39:38.194Z,19.00
2018-02-08T07:40:38.245Z,19.00
2018-02-08T07:41:38.345Z,19.80
2018-02-08T07:42:38.346Z,19.00
2018-02-08T07:43:38.396Z,19.10
2018-02-08T07:44:38.444Z,19.60
2018-02-08T07:45:38.497Z,20.10
2018-02-08T07:46:38.546Z,20.00
2018-02-08T07:47:38.596Z,19.10
2018-02-08T07:48:38.646Z,18.60
2018-02-08T07:49:38.696Z,19.20
2018-02-08T07:50:38.746Z,20.00
2018-02-08T07:51:38.796Z,19.10
2018-02-08T07:52:38.845Z,19.20
2018-02-08T07:53:39.045Z,18.80
2018-02-08T07:54:38.946Z,19.40
2018-02-08T07:55:38.995Z,20.60
2018-02-08T07:56:39.046Z,20.30
2018-02-08T07:57:39.095Z,18.90
2018-02-08T07:58:39.147Z,19.70
2018-02-08T08:00:39.245Z,19.10
2018-02-08T08:01:39.295Z,19.40
2018-02-08T08:02:39.350Z,19.20
2018-02-08T08:03:39.396Z,19.50
2018-02-08T08:04:39.445Z,19.60
2018-02-08T08:05:39.496Z,19.30
2018-02-08T08:06:39.546Z,19.50
2018-02-08T08:07:39.597Z,19.10
2018-02-08T08:08:39.647Z,18.60
2018-02-08T08:09:39.697Z,19.90
2018-02-08T08:10:39.748Z,19.90
2018-02-08T08:11:39.796Z,19.00
2018-02-08T08:12:39.848Z,20.40
2018-02-08T08:13:39.898Z,19.40
2018-02-08T08:14:39.949Z,19.10
2018-02-08T08:15:39.998Z,18.80
2018-02-08T08:16:40.048Z,19.70
2018-02-08T08:17:40.103Z,19.60
2018-02-08T08:18:40.150Z,18.70
2018-02-08T08:19:40.199Z,19.90
2018-02-08T08:20:40.249Z,20.00
2018-02-08T08:21:40.351Z,19.30
2018-02-08T08:22:40.352Z,20.20
2018-02-08T08:23:40.401Z,20.60
2018-02-08T08:24:40.451Z,20.30
2018-02-08T08:25:40.502Z,19.30
2018-02-08T08:26:40.553Z,21.10
2018-02-08T08:27:41.302Z,20.70
2018-02-08T08:28:40.654Z,19.80
2018-02-08T08:29:40.705Z,21.60
2018-02-08T08:30:40.755Z,20.30
2018-02-08T08:31:40.806Z,20.50
2018-02-08T08:32:40.857Z,21.40
2018-02-08T08:33:40.908Z,20.30
2018-02-08T08:34:40.958Z,19.70
2018-02-08T08:35:41.009Z,20.70
2018-02-08T08:36:41.060Z,20.80
2018-02-08T08:37:41.111Z,20.50
2018-02-08T08:38:41.161Z,20.30
2018-02-08T08:40:14.911Z,21.00
2018-02-08T08:40:41.777Z,20.10
2018-02-08T08:41:41.313Z,19.50
2018-02-08T08:42:41.366Z,20.40
2018-02-08T08:43:41.415Z,20.80
2018-02-08T08:44:41.467Z,20.90
2018-02-08T08:45:41.518Z,20.80
2018-02-08T08:46:42.366Z,19.90
2018-02-08T08:47:41.626Z,21.00
2018-02-08T08:48:41.672Z,19.40
2018-02-08T08:49:41.722Z,20.40
2018-02-08T08:50:41.773Z,20.40
2018-02-08T08:51:41.825Z,19.80
2018-02-08T08:52:41.876Z,21.00
2018-02-08T08:53:41.932Z,19.70
2018-02-08T08:54:41.980Z,21.00
2018-02-08T08:55:42.037Z,20.10
2018-02-08T08:56:42.081Z,21.30
2018-02-08T08:57:42.134Z,20.70
2018-02-08T08:58:42.184Z,21.40
2018-02-08T08:59:42.235Z,21.30
2018-02-08T09:00:42.288Z,21.20
2018-02-08T09:01:42.340Z,21.30
2018-02-08T09:02:42.391Z,21.10
2018-02-08T09:03:42.443Z,20.90
2018-02-08T09:04:42.495Z,21.40
2018-02-08T09:05:42.548Z,20.20
2018-02-08T09:06:42.598Z,21.80
2018-02-08T09:07:42.653Z,21.00
2018-02-08T09:08:42.783Z,21.40
2018-02-08T09:09:42.756Z,23.40
2018-02-08T09:10:42.842Z,20.70
2018-02-08T09:11:43.290Z,21.30
2018-02-08T09:12:42.912Z,21.30
2018-02-08T09:13:42.969Z,21.40
2018-02-08T09:14:43.342Z,21.10
2018-02-08T09:15:43.067Z,22.10
2018-02-08T09:16:43.120Z,21.80
2018-02-08T09:17:43.174Z,21.90
2018-02-08T09:18:43.227Z,22.20
2018-02-08T09:19:43.279Z,21.60
2018-02-08T09:20:43.331Z,21.30
2018-02-08T09:21:43.383Z,21.80
2018-02-08T09:22:43.439Z,22.70
2018-02-08T09:23:43.489Z,22.30
2018-02-08T09:24:43.541Z,21.60
2018-02-08T09:25:43.594Z,22.60
2018-02-08T09:26:43.649Z,21.30
2018-02-08T09:27:43.700Z,21.10
2018-02-08T09:28:44.319Z,21.90
2018-02-08T09:29:44.588Z,21.60
2018-02-08T09:30:43.864Z,21.50
2018-02-08T09:31:44.069Z,21.00
2018-02-08T09:32:43.965Z,22.50
2018-02-08T09:33:44.018Z,22.40
2018-02-08T09:34:44.072Z,21.10
2018-02-08T09:35:44.123Z,21.80
2018-02-08T09:36:44.176Z,21.80
2018-02-08T09:37:44.876Z,20.50
2018-02-08T09:38:44.856Z,21.80
2018-02-08T09:39:44.339Z,21.10
2018-02-08T09:40:44.390Z,21.00
2018-02-08T09:41:44.442Z,21.70
2018-02-08T09:42:44.497Z,21.50
2018-02-08T09:43:44.548Z,21.80
2018-02-08T09:44:45.139Z,20.90
2018-02-08T09:45:44.671Z,21.30
2018-02-08T09:46:44.710Z,21.00
2018-02-08T09:47:44.763Z,21.10
2018-02-08T09:48:44.817Z,20.50
2018-02-08T09:49:44.871Z,21.80
2018-02-08T09:50:44.925Z,21.00
2018-02-08T09:51:44.977Z,21.50
2018-02-08T09:52:45.031Z,21.70
2018-02-08T09:53:45.086Z,22.30
2018-02-08T09:55:18.400Z,21.90
2018-02-08T09:55:45.192Z,21.10
2018-02-08T09:56:45.404Z,22.20
2018-02-08T09:57:45.303Z,22.10
2018-02-08T09:58:45.354Z,21.60
2018-02-08T09:59:45.408Z,21.80
2018-02-08T10:00:45.465Z,21.60
2018-02-08T10:01:45.517Z,22.00
2018-02-08T10:02:45.570Z,21.60
2018-02-08T10:03:45.624Z,22.60
2018-02-08T10:04:45.681Z,21.80
2018-02-08T10:05:45.733Z,22.60
2018-02-08T10:06:45.787Z,22.10
2018-02-08T10:07:45.840Z,23.00
2018-02-08T10:08:45.911Z,21.60
2018-02-08T10:09:45.951Z,22.50
2018-02-08T10:10:46.006Z,21.60
2018-02-08T10:11:46.058Z,22.70
2018-02-08T10:12:46.114Z,21.90
2018-02-08T10:14:19.381Z,21.40
2018-02-08T10:14:46.225Z,23.40
2018-02-08T10:15:46.277Z,22.80
2018-02-08T10:16:46.383Z,22.70
2018-02-08T10:17:46.388Z,22.40
2018-02-08T10:18:46.450Z,22.30
2018-02-08T10:19:46.501Z,22.80
2018-02-08T10:20:46.554Z,22.10
2018-02-08T10:21:46.611Z,22.60
2018-02-08T10:22:46.666Z,23.10
2018-02-08T10:23:46.720Z,21.20
2018-02-08T10:24:46.777Z,22.90
2018-02-08T10:25:46.833Z,22.00
2018-02-08T10:26:46.890Z,22.60
2018-02-08T10:27:46.945Z,21.80
2018-02-08T10:28:47.000Z,21.70
2018-02-08T10:29:47.057Z,23.40
2018-02-08T10:30:47.156Z,22.80
2018-02-08T10:31:47.168Z,22.80
2018-02-08T10:32:47.224Z,23.60
2018-02-08T10:33:47.280Z,22.40
2018-02-08T10:34:47.338Z,20.70
2018-02-08T10:35:47.392Z,21.90
2018-02-08T10:36:47.448Z,22.50
2018-02-08T10:37:47.506Z,22.60
2018-02-08T10:38:47.560Z,22.10
2018-02-08T10:39:47.617Z,22.50
2018-02-08T10:40:47.674Z,22.70
2018-02-08T10:41:47.737Z,22.80
2018-02-08T10:42:47.791Z,22.70
2018-02-08T10:43:47.843Z,22.40
2018-02-08T10:44:47.901Z,22.00
2018-02-08T10:45:47.956Z,23.50
2018-02-08T10:46:48.013Z,23.50
2018-02-08T10:47:48.067Z,23.20
2018-02-08T10:48:48.125Z,22.20
2018-02-08T10:49:48.182Z,22.10
2018-02-08T10:50:48.237Z,22.90
2018-02-08T10:51:48.293Z,22.00
2018-02-08T10:52:48.350Z,22.70
2018-02-08T10:53:48.407Z,23.70
2018-02-08T10:54:48.463Z,22.20
2018-02-08T10:55:48.522Z,23.00
2018-02-08T10:56:48.578Z,23.20
2018-02-08T10:57:48.632Z,22.90
2018-02-08T10:58:48.690Z,23.30
2018-02-08T10:59:48.744Z,22.30
2018-02-08T11:00:48.802Z,22.70
2018-02-08T11:01:48.860Z,22.50
2018-02-08T11:02:48.915Z,23.50
2018-02-08T11:03:48.972Z,23.30
2018-02-08T11:04:49.028Z,22.80
2018-02-08T11:05:49.084Z,23.40
2018-02-08T11:06:49.141Z,23.80
2018-02-08T11:07:49.198Z,22.10
2018-02-08T11:08:49.254Z,24.20
2018-02-08T11:09:49.312Z,23.60
2018-02-08T11:10:49.367Z,23.30
2018-02-08T11:11:49.423Z,22.90
2018-02-08T11:12:49.712Z,23.60
2018-02-08T11:13:49.538Z,23.80
2018-02-08T11:14:49.595Z,23.70
2018-02-08T11:15:49.651Z,23.00
2018-02-08T11:16:50.370Z,24.00
2018-02-08T11:17:49.764Z,24.60
2018-02-08T11:18:50.516Z,24.00
2018-02-08T11:19:49.878Z,23.40
2018-02-08T11:20:49.933Z,22.40
2018-02-08T11:21:49.991Z,23.70
2018-02-08T11:22:50.047Z,23.10
2018-02-08T11:23:50.105Z,22.40
2018-02-08T11:24:50.161Z,23.00
2018-02-08T11:25:50.218Z,22.90
2018-02-08T11:26:50.275Z,23.60
2018-02-08T11:27:50.331Z,23.70
2018-02-08T11:28:50.388Z,23.40
2018-02-08T11:29:50.444Z,24.90
2018-02-08T11:30:50.502Z,24.70
2018-02-08T11:31:50.558Z,22.90
2018-02-08T11:32:50.616Z,23.30
2018-02-08T11:33:50.671Z,24.20
2018-02-08T11:34:50.732Z,24.00
2018-02-08T11:35:50.788Z,23.50
2018-02-08T11:36:50.841Z,23.60
2018-02-08T11:37:50.898Z,24.20
2018-02-08T11:38:50.959Z,23.10
2018-02-08T11:39:51.162Z,24.70
2018-02-08T11:40:51.068Z,24.80
2018-02-08T11:41:51.125Z,23.70
2018-02-08T11:42:51.182Z,24.20
2018-02-08T11:43:51.237Z,22.90
2018-02-08T11:44:51.301Z,24.50
2018-02-08T11:45:51.353Z,23.80
2018-02-08T11:46:51.410Z,22.90
2018-02-08T11:47:51.472Z,24.40
2018-02-08T11:48:51.525Z,24.10
2018-02-08T11:49:51.582Z,23.50
2018-02-08T11:50:51.638Z,24.50
2018-02-08T11:51:51.697Z,24.00
2018-02-08T11:52:51.754Z,24.10
2018-02-08T11:53:51.812Z,24.30
2018-02-08T11:54:51.872Z,24.80
2018-02-08T11:55:51.932Z,25.40
2018-02-08T11:56:51.987Z,23.80
2018-02-08T11:57:52.048Z,24.60
2018-02-08T11:58:52.131Z,25.20
2018-02-08T11:59:52.183Z,24.20
2018-02-08T12:00:52.262Z,24.40
2018-02-08T12:01:52.281Z,24.70
2018-02-08T12:02:52.339Z,24.30
2018-02-08T12:03:53.015Z,25.10
2018-02-08T12:04:52.457Z,24.70
2018-02-08T12:05:52.516Z,24.10
2018-02-08T12:06:52.576Z,25.40
2018-02-08T12:07:52.885Z,24.80
2018-02-08T12:08:52.692Z,24.90
2018-02-08T12:09:52.750Z,25.10
2018-02-08T12:10:52.809Z,26.10
2018-02-08T12:11:52.870Z,24.80
2018-02-08T12:12:52.928Z,25.20
2018-02-08T12:13:52.987Z,25.50
2018-02-08T12:14:53.047Z,24.50
2018-02-08T12:15:53.106Z,25.70
2018-02-08T12:16:53.164Z,25.10
2018-02-08T12:17:53.225Z,24.90
2018-02-08T12:18:53.283Z,25.70
2018-02-08T12:19:53.342Z,25.00
2018-02-08T12:20:53.401Z,25.30
2018-02-08T12:21:53.466Z,25.70
2018-02-08T12:22:53.520Z,25.00
2018-02-08T12:23:53.580Z,25.20
2018-02-08T12:24:53.639Z,25.30
2018-02-08T12:25:53.698Z,25.40
2018-02-08T12:26:53.758Z,25.20
2018-02-08T12:27:53.819Z,25.00
2018-02-08T12:28:53.878Z,25.20
2018-02-08T12:29:53.938Z,25.40
2018-02-08T12:30:53.999Z,24.40
2018-02-08T12:31:54.059Z,25.50
2018-02-08T12:32:54.121Z,26.00
2018-02-08T12:33:54.178Z,25.30
2018-02-08T12:34:54.241Z,24.60
2018-02-08T12:35:54.298Z,25.10
2018-02-08T12:36:54.360Z,25.60
2018-02-08T12:37:54.423Z,26.40
2018-02-08T12:38:54.480Z,25.60
2018-02-08T12:39:54.648Z,25.40
2018-02-08T12:40:54.601Z,25.70
2018-02-08T12:41:54.663Z,25.30
2018-02-08T12:42:54.722Z,25.00
2018-02-08T12:43:54.781Z,24.60
2018-02-08T12:44:54.842Z,25.00
2018-02-08T12:45:54.903Z,25.60
2018-02-08T12:46:54.963Z,24.50
2018-02-08T12:47:55.035Z,24.70
2018-02-08T12:48:55.083Z,24.80
2018-02-08T12:49:55.143Z,24.90
2018-02-08T12:50:55.204Z,24.90
2018-02-08T12:51:55.832Z,26.10
2018-02-08T12:52:55.324Z,25.50
2018-02-08T12:53:55.384Z,25.00
2018-02-08T12:54:55.446Z,25.70
2018-02-08T12:55:55.503Z,26.00
2018-02-08T12:56:55.563Z,25.30
2018-02-08T12:57:55.624Z,25.70
2018-02-08T12:58:55.683Z,25.50
2018-02-08T12:59:55.744Z,25.30
2018-02-08T13:00:56.401Z,25.00
2018-02-08T13:01:55.862Z,24.00
2018-02-08T13:02:55.921Z,25.70
2018-02-08T13:03:55.981Z,26.50
2018-02-08T13:04:56.039Z,25.10
2018-02-08T13:05:56.131Z,25.20
2018-02-08T13:06:56.198Z,25.30
2018-02-08T13:07:56.238Z,25.60
2018-02-08T13:08:56.863Z,25.00
2018-02-08T13:09:56.405Z,25.30
2018-02-08T13:10:56.400Z,24.90
2018-02-08T13:11:56.458Z,25.10
2018-02-08T13:12:56.518Z,26.10
2018-02-08T13:13:56.579Z,24.90
2018-02-08T13:14:56.640Z,24.90
2018-02-08T13:15:56.698Z,25.20
2018-02-08T13:16:56.757Z,24.90
2018-02-08T13:17:56.818Z,26.20
2018-02-08T13:18:56.902Z,24.60
2018-02-08T13:19:56.938Z,24.80
2018-02-08T13:20:56.998Z,24.40
2018-02-08T13:21:57.059Z,24.60
2018-02-08T13:22:57.118Z,24.60
2018-02-08T13:23:57.179Z,25.00
2018-02-08T13:24:57.238Z,24.00
2018-02-08T13:25:57.299Z,25.10
2018-02-08T13:26:57.360Z,24.10
2018-02-08T13:27:57.418Z,24.70
2018-02-08T13:28:57.479Z,24.70
2018-02-08T13:29:57.540Z,25.30
2018-02-08T13:30:57.602Z,24.60
2018-02-08T13:31:57.660Z,25.00
2018-02-08T13:33:01.484Z,24.10
2018-02-08T13:33:57.781Z,24.10
2018-02-08T13:34:57.843Z,24.30
2018-02-08T13:35:57.903Z,25.10
2018-02-08T13:36:58.547Z,24.60
2018-02-08T13:37:58.449Z,24.10
2018-02-08T13:38:58.456Z,24.70
2018-02-08T13:39:58.185Z,24.40
2018-02-08T13:40:58.257Z,25.30
2018-02-08T13:41:58.265Z,24.40
2018-02-08T13:42:58.329Z,24.00
2018-02-08T13:43:59.570Z,24.30
2018-02-08T13:44:58.828Z,23.00
2018-02-08T13:45:58.525Z,24.30
2018-02-08T13:46:58.566Z,24.30
2018-02-08T13:47:59.091Z,24.30
2018-02-08T13:48:58.684Z,23.40
2018-02-08T13:49:58.746Z,23.70
2018-02-08T13:50:58.807Z,24.60
2018-02-08T13:51:58.867Z,23.80
2018-02-08T13:52:58.926Z,24.20
2018-02-08T13:53:58.988Z,23.20
2018-02-08T13:54:59.051Z,24.50
2018-02-08T13:55:59.109Z,24.00
2018-02-08T13:56:59.170Z,22.90
2018-02-08T13:57:59.230Z,23.60
2018-02-08T13:58:59.293Z,24.40
2018-02-08T13:59:59.352Z,23.70
2018-02-08T14:00:59.413Z,23.70
2018-02-08T14:01:59.475Z,23.70
2018-02-08T14:02:59.538Z,24.20
2018-02-08T14:03:59.595Z,23.80
2018-02-08T14:04:59.657Z,22.90
2018-02-08T14:05:59.718Z,24.20
2018-02-08T14:06:59.778Z,24.70
2018-02-08T14:07:59.840Z,24.70
2018-02-08T14:08:59.900Z,23.50
2018-02-08T14:09:59.961Z,23.90
2018-02-08T14:11:00.023Z,24.20
2018-02-08T14:12:00.081Z,24.30
2018-02-08T14:13:00.141Z,23.20
2018-02-08T14:14:00.202Z,24.30
2018-02-08T14:15:00.262Z,24.70
2018-02-08T14:16:00.321Z,24.00
2018-02-08T14:17:00.382Z,25.20
2018-02-08T14:18:00.444Z,24.00
2018-02-08T14:19:00.500Z,23.90
2018-02-08T14:20:01.154Z,23.50
2018-02-08T14:21:00.620Z,24.30
2018-02-08T14:22:00.722Z,24.30
2018-02-08T14:23:01.416Z,23.00
2018-02-08T14:24:00.796Z,23.30
2018-02-08T14:25:00.856Z,24.20
2018-02-08T14:26:01.594Z,22.70
2018-02-08T14:27:00.977Z,22.80
2018-02-08T14:28:01.034Z,23.20
2018-02-08T14:29:01.614Z,23.80
2018-02-08T14:30:01.152Z,23.20
2018-02-08T14:31:01.213Z,22.90
2018-02-08T14:32:01.270Z,22.50
2018-02-08T14:33:01.328Z,22.90
2018-02-08T14:34:01.392Z,22.70
2018-02-08T14:35:01.446Z,22.60
2018-02-08T14:36:02.179Z,22.20
2018-02-08T14:37:01.564Z,23.60
2018-02-08T14:38:01.631Z,23.20
2018-02-08T14:39:01.685Z,22.40
2018-02-08T14:40:01.744Z,22.50
2018-02-08T14:41:01.801Z,21.30
2018-02-08T14:42:01.865Z,22.40
2018-02-08T14:43:01.921Z,22.10
2018-02-08T14:44:01.979Z,23.20
2018-02-08T14:45:02.040Z,22.60
2018-02-08T14:46:02.102Z,23.20
2018-02-08T14:47:02.161Z,22.60
2018-02-08T14:48:02.218Z,22.60
2018-02-08T14:49:02.279Z,23.80
2018-02-08T14:50:02.338Z,22.60
2018-02-08T14:51:02.398Z,22.20
2018-02-08T14:52:02.458Z,22.50
2018-02-08T14:53:02.516Z,23.00
2018-02-08T14:54:02.577Z,22.80
2018-02-08T14:55:02.638Z,22.90
2018-02-08T14:56:02.698Z,23.50
2018-02-08T14:57:02.756Z,24.10
2018-02-08T14:58:02.816Z,24.00
2018-02-08T14:59:02.874Z,23.00
2018-02-08T15:00:02.933Z,23.80
2018-02-08T15:01:02.991Z,22.70
2018-02-08T15:02:03.050Z,22.80
2018-02-08T15:03:03.700Z,23.00
2018-02-08T15:04:03.168Z,23.60
2018-02-08T15:05:03.273Z,23.20
2018-02-08T15:06:03.285Z,23.90
2018-02-08T15:07:03.344Z,23.60
2018-02-08T15:08:03.403Z,23.30
2018-02-08T15:09:03.460Z,23.80
2018-02-08T15:10:03.520Z,23.70
2018-02-08T15:11:03.577Z,22.90
2018-02-08T15:12:03.635Z,23.30
2018-02-08T15:13:03.693Z,23.40
2018-02-08T15:14:03.750Z,24.50
2018-02-08T15:15:03.809Z,22.50
2018-02-08T15:16:03.866Z,23.50
2018-02-08T15:17:03.924Z,23.50
2018-02-08T15:18:03.981Z,23.30
2018-02-08T15:19:04.091Z,23.20
2018-02-08T15:20:04.095Z,23.10
2018-02-08T15:21:04.154Z,23.30
2018-02-08T15:22:04.210Z,22.80
2018-02-08T15:23:04.268Z,23.50
2018-02-08T15:24:04.323Z,22.40
2018-02-08T15:25:04.380Z,23.90
2018-02-08T15:26:04.438Z,23.30
2018-02-08T15:27:05.237Z,23.60
2018-02-08T15:28:05.231Z,23.80
2018-02-08T15:29:05.384Z,23.30
2018-02-08T15:30:04.665Z,24.50
2018-02-08T15:31:04.721Z,23.40
2018-02-08T15:32:04.777Z,23.30
2018-02-08T15:33:04.835Z,23.50
2018-02-08T15:34:04.890Z,23.40
2018-02-08T15:35:04.946Z,24.00
2018-02-08T15:36:05.005Z,23.10
2018-02-08T15:37:05.059Z,22.90
2018-02-08T15:38:05.814Z,22.70
2018-02-08T15:39:05.983Z,24.20
2018-02-08T15:40:05.225Z,23.30
2018-02-08T15:41:05.281Z,24.70
2018-02-08T15:42:05.337Z,23.10
2018-02-08T15:43:05.393Z,24.00
2018-02-08T15:44:05.447Z,23.60
2018-02-08T15:45:05.755Z,23.70
2018-02-08T15:46:05.570Z,23.40
2018-02-08T15:47:05.616Z,23.20
2018-02-08T15:48:05.671Z,23.70
2018-02-08T15:49:05.727Z,24.70
2018-02-08T15:50:05.782Z,22.90
2018-02-08T15:51:05.838Z,23.20
2018-02-08T15:52:05.895Z,23.10
2018-02-08T15:53:05.951Z,24.20
2018-02-08T15:54:06.004Z,24.00
2018-02-08T15:55:06.059Z,24.40
2018-02-08T15:56:06.113Z,22.80
2018-02-08T15:57:06.169Z,24.60
2018-02-08T15:58:06.224Z,22.50
2018-02-08T15:59:06.279Z,24.10
2018-02-08T16:00:06.334Z,23.20
2018-02-08T16:01:06.389Z,23.30
2018-02-08T16:02:06.444Z,22.50
2018-02-08T16:03:06.498Z,22.90
2018-02-08T16:04:07.109Z,22.70
2018-02-08T16:05:06.610Z,23.70
2018-02-08T16:06:06.663Z,24.10
2018-02-08T16:07:06.970Z,24.60
2018-02-08T16:08:06.773Z,24.20
2018-02-08T16:09:06.827Z,23.40
2018-02-08T16:10:06.883Z,23.70
2018-02-08T16:11:06.938Z,24.50
2018-02-08T16:12:06.991Z,24.10
2018-02-08T16:13:07.048Z,25.10
2018-02-08T16:14:07.100Z,23.90
2018-02-08T16:15:07.155Z,24.80
2018-02-08T16:16:07.518Z,24.00
2018-02-08T16:17:07.262Z,23.70
2018-02-08T16:18:07.317Z,23.90
2018-02-08T16:19:07.373Z,24.50
2018-02-08T16:20:07.426Z,23.30
2018-02-08T16:21:07.481Z,23.70
2018-02-08T16:22:07.535Z,24.70
2018-02-08T16:23:07.588Z,24.70
2018-02-08T16:24:07.642Z,24.50
2018-02-08T16:25:07.695Z,24.30
2018-02-08T16:26:07.750Z,24.50
2018-02-08T16:27:07.804Z,24.10
2018-02-08T16:28:07.857Z,25.80
2018-02-08T16:29:07.914Z,25.40
2018-02-08T16:30:08.028Z,25.20
2018-02-08T16:31:08.020Z,24.50
2018-02-08T16:32:08.073Z,25.30
2018-02-08T16:33:08.130Z,25.10
2018-02-08T16:34:08.179Z,25.60
2018-02-08T16:35:08.234Z,24.40
2018-02-08T16:36:08.288Z,23.80
2018-02-08T16:37:08.341Z,24.80
2018-02-08T16:38:08.396Z,24.20
2018-02-08T16:39:08.449Z,25.30
2018-02-08T16:40:08.501Z,26.70
2018-02-08T16:41:08.555Z,25.70
2018-02-08T16:42:08.609Z,25.00
2018-02-08T16:43:08.663Z,25.60
2018-02-08T16:44:08.722Z,25.20
2018-02-08T16:45:08.767Z,24.00
2018-02-08T16:46:08.821Z,24.60
2018-02-08T16:47:08.876Z,26.20
2018-02-08T16:48:09.076Z,25.10
2018-02-08T16:49:08.981Z,25.90
2018-02-08T16:50:09.033Z,25.90
2018-02-08T16:51:09.086Z,25.70
2018-02-08T16:52:09.141Z,26.30
2018-02-08T16:53:09.245Z,26.90
2018-02-08T16:54:09.565Z,25.90
2018-02-08T16:55:09.300Z,26.60
2018-02-08T16:56:09.352Z,25.00
2018-02-08T16:57:09.444Z,24.20
2018-02-08T16:58:09.460Z,26.50
2018-02-08T16:59:09.512Z,25.20
2018-02-08T17:00:09.564Z,24.90
2018-02-08T17:01:09.617Z,24.50
2018-02-08T17:02:09.669Z,24.40
2018-02-08T17:03:09.721Z,25.40
2018-02-08T17:04:09.774Z,25.00
2018-02-08T17:05:09.827Z,25.70
2018-02-08T17:06:09.880Z,24.90
2018-02-08T17:07:09.934Z,24.60
2018-02-08T17:08:09.986Z,25.70
2018-02-08T17:09:10.039Z,25.40
2018-02-08T17:10:10.092Z,24.50
2018-02-08T17:11:10.144Z,24.60
2018-02-08T17:12:10.197Z,23.90
2018-02-08T17:13:10.249Z,25.30
2018-02-08T17:14:10.301Z,25.00
2018-02-08T17:15:10.356Z,24.30
2018-02-08T17:16:10.407Z,24.40
2018-02-08T17:17:10.459Z,24.10
2018-02-08T17:18:10.512Z,25.30
2018-02-08T17:19:10.565Z,24.70
2018-02-08T17:20:10.619Z,25.30
2018-02-08T17:21:10.870Z,24.60
2018-02-08T17:22:10.722Z,24.90
2018-02-08T17:23:10.774Z,24.10
2018-02-08T17:24:10.826Z,25.40
2018-02-08T17:25:10.879Z,24.60
2018-02-08T17:26:10.932Z,24.40
2018-02-08T17:27:10.985Z,25.30
2018-02-08T17:28:11.039Z,25.10
2018-02-08T17:29:11.089Z,23.30
2018-02-08T17:30:11.141Z,24.90
2018-02-08T17:31:11.194Z,24.60
2018-02-08T17:32:11.245Z,24.50
2018-02-08T17:33:11.302Z,24.80
2018-02-08T17:34:11.351Z,23.70
2018-02-08T17:35:11.405Z,24.80
2018-02-08T17:36:11.456Z,26.20
2018-02-08T17:37:11.509Z,25.00
2018-02-08T17:38:11.566Z,24.60
2018-02-08T17:39:11.920Z,24.20
2018-02-08T17:40:11.664Z,25.30
2018-02-08T17:41:11.716Z,24.80
2018-02-08T17:42:11.770Z,26.20
2018-02-08T17:43:11.821Z,25.70
2018-02-08T17:44:11.872Z,26.30
2018-02-08T17:45:11.924Z,26.00
2018-02-08T17:46:11.977Z,26.10
2018-02-08T17:47:12.030Z,24.30
2018-02-08T17:48:12.122Z,25.50
2018-02-08T17:49:12.133Z,24.90
2018-02-08T17:50:12.185Z,24.50
2018-02-08T17:51:12.239Z,25.80
2018-02-08T17:52:12.290Z,24.80
2018-02-08T17:53:12.341Z,24.40
2018-02-08T17:54:12.393Z,25.10
2018-02-08T17:55:12.448Z,25.70
2018-02-08T17:56:12.497Z,24.70
2018-02-08T17:57:12.549Z,24.70
2018-02-08T17:58:12.603Z,24.40
2018-02-08T17:59:12.655Z,25.10
2018-02-08T18:00:12.706Z,25.40
2018-02-08T18:01:12.759Z,26.00
2018-02-08T18:02:12.809Z,25.10
2018-02-08T18:03:12.862Z,26.40
2018-02-08T18:04:12.913Z,26.50
2018-02-08T18:05:12.970Z,25.70
2018-02-08T18:06:13.062Z,24.50
2018-02-08T18:07:13.069Z,24.50
2018-02-08T18:08:13.121Z,25.50